createdAt,value
2023-04-22T18:54:54.868Z,2.00
2023-04-22T18:57:22.734Z,2.42
2023-04-22T18:59:51.068Z,3.75
2023-04-22T19:02:19.083Z,4.85
2023-04-22T19:04:47.305Z,4.55
2023-04-22T19:07:15.231Z,5.45
2023-04-22T19:09:43.072Z,4.80
2023-04-22T19:12:14.688Z,5.47
2023-04-22T19:14:43.038Z,6.35
2023-04-22T19:17:11.141Z,6.82
2023-04-22T19:19:39.386Z,10.05
2023-04-22T19:22:08.016Z,9.63
2023-04-22T19:24:35.997Z,10.13
2023-04-22T19:27:06.868Z,10.88
2023-04-22T19:29:36.089Z,11.45
2023-04-22T19:32:05.046Z,11.85
2023-04-22T19:34:32.950Z,9.52
2023-04-22T19:37:02.822Z,11.85
2023-04-22T19:39:30.973Z,10.68
2023-04-22T19:41:59.576Z,11.50
2023-04-22T19:44:27.455Z,13.55
2023-04-22T19:46:56.884Z,15.15
2023-04-22T19:49:25.314Z,16.85
2023-04-22T19:51:54.483Z,15.90
2023-04-22T19:54:22.811Z,17.23
2023-04-22T19:56:51.074Z,18.02
2023-04-22T19:59:19.435Z,17.75
2023-04-22T20:01:47.888Z,19.73
2023-04-22T20:04:17.870Z,21.05
2023-04-22T20:06:46.387Z,21.45
2023-04-22T20:09:15.481Z,20.75
2023-04-22T20:11:43.449Z,21.42
2023-04-22T20:14:13.597Z,22.27
2023-04-22T20:16:42.236Z,21.23
2023-04-22T20:19:11.608Z,22.95
2023-04-22T20:21:41.174Z,24.92
2023-04-22T20:24:11.844Z,24.48
2023-04-22T20:26:40.472Z,26.75
2023-04-22T20:29:09.117Z,26.50
2023-04-22T20:31:37.540Z,26.55
2023-04-22T20:34:05.758Z,26.42
2023-04-22T20:36:34.790Z,24.83
2023-04-22T20:39:05.264Z,26.20
2023-04-22T20:41:39.188Z,25.67
2023-04-22T20:44:07.741Z,28.52
2023-04-22T20:46:35.826Z,25.05
2023-04-22T20:49:03.725Z,25.45
2023-04-22T20:51:31.823Z,23.45
2023-04-22T20:54:00.058Z,24.92
2023-04-22T20:56:29.272Z,25.52
2023-04-22T20:58:57.281Z,26.17
2023-04-22T21:01:27.410Z,26.75
2023-04-22T21:03:58.313Z,26.90
2023-04-22T21:06:28.594Z,29.10
2023-04-22T21:08:57.632Z,29.80
2023-04-22T21:11:26.044Z,31.85
2023-04-22T21:13:55.710Z,32.58
2023-04-22T21:16:27.365Z,28.17
2023-04-22T21:18:59.083Z,33.60
2023-04-22T21:21:31.456Z,34.33
2023-04-22T21:24:01.284Z,30.30
2023-04-22T21:26:30.417Z,33.33
2023-04-22T21:29:00.151Z,33.90
2023-04-22T21:31:28.119Z,39.45
2023-04-22T21:33:56.095Z,32.38
2023-04-22T21:36:24.865Z,31.77
2023-04-22T21:38:52.758Z,35.03
2023-04-22T21:41:20.611Z,36.58
2023-04-22T21:43:48.463Z,37.65
2023-04-22T21:46:17.917Z,37.05
2023-04-22T21:48:45.795Z,37.05
2023-04-22T21:51:13.664Z,35.25
2023-04-22T21:53:41.550Z,35.88
2023-04-22T21:56:09.463Z,37.92
2023-04-22T21:58:37.302Z,36.53
2023-04-22T22:01:05.188Z,34.97
2023-04-22T22:03:36.145Z,35.88
2023-04-22T22:06:04.397Z,42.67
2023-04-22T22:08:32.635Z,38.10
2023-04-22T22:11:00.570Z,35.67
2023-04-22T22:13:28.402Z,39.72
2023-04-22T22:15:57.455Z,39.22
2023-04-22T22:18:25.457Z,39.47
2023-04-22T22:20:54.781Z,36.75
2023-04-22T22:23:22.712Z,40.03
2023-04-22T22:25:50.690Z,43.97
2023-04-22T22:28:18.565Z,43.65
2023-04-22T22:30:46.631Z,42.78
2023-04-22T22:33:14.516Z,42.55
2023-04-22T22:35:42.444Z,39.45
2023-04-22T22:38:11.709Z,41.55
2023-04-22T22:40:39.536Z,40.88
2023-04-22T22:43:07.458Z,40.53
2023-04-22T22:45:35.759Z,41.95
2023-04-22T22:48:03.911Z,40.75
2023-04-22T22:50:31.830Z,39.03
2023-04-22T22:53:00.419Z,41.10
2023-04-22T22:55:29.655Z,41.53
2023-04-22T22:57:57.540Z,43.30
2023-04-22T23:00:25.425Z,40.80
2023-04-22T23:02:53.470Z,41.75
2023-04-22T23:05:21.744Z,41.40
2023-04-22T23:07:49.673Z,43.47
2023-04-22T23:10:17.580Z,43.47
2023-04-22T23:12:46.762Z,43.45
2023-04-22T23:15:14.640Z,47.72
2023-04-22T23:17:42.581Z,46.03
2023-04-22T23:20:11.999Z,45.65
2023-04-22T23:22:40.769Z,47.30
2023-04-22T23:25:10.200Z,42.28
2023-04-22T23:27:38.575Z,47.15
2023-04-22T23:30:09.885Z,45.33
2023-04-22T23:32:41.043Z,45.55
2023-04-22T23:35:11.752Z,44.83
2023-04-22T23:37:44.041Z,45.85
2023-04-22T23:40:12.669Z,43.42
2023-04-22T23:42:40.657Z,45.30
2023-04-22T23:45:11.623Z,46.55
2023-04-22T23:47:39.523Z,49.50
2023-04-22T23:50:08.582Z,49.25
2023-04-22T23:52:40.943Z,50.42
2023-04-22T23:55:10.262Z,50.65
2023-04-22T23:57:38.749Z,50.58
